VTSS/HDY METAR and TAF weather

Enter ICAO airport designator
Station Type Date Time Source
VTSS METAR 2019/12/09 06:00 UTC NOAA

VTSS 090600Z 07016KT 9999 FEW018TCU SCT020 BKN100 30/22 Q1012 NOSIG


Station Type Date Time Source
VTSS Decoded METAR 2019/12/09 06:00 UTC NOAA

Hat Yai, Thailand (VTSS) 06-55N 100-26E 35M
Dec 09, 2019 - 01:00 AM EST / 2019.12.09 0600 UTC
Wind: from the ENE (070 degrees) at 18 MPH (16 KT):0
Visibility: greater than 7 mile(s):0
Sky conditions: mostly cloudy
Weather: Towering cumulus clouds observed
Temperature: 86 F (30 C)
Heat index: 91.8 F (33.2 C):1
Dew Point: 71 F (22 C)
Relative Humidity: 62%
Pressure (altimeter): 29.88 in. Hg (1012 hPa)
ob: VTSS 090600Z 07016KT 9999 FEW018TCU SCT020 BKN100 30/22 Q1012 NOSIG
cycle: 6

Station Type Date Time Source
VTSS TAF 2019/12/09 06:36 UTC NOAA

TAF VTSS 090500Z 0906/1006 07013KT 9999 SCT020 SCT100 PROB40
TEMPO 0907/0913 5000 RA SCT015 BKN100
BECMG 0913/0915 06003KT
TEMPO 0915/0921 5000 RA SCT015 BKN100
TEMPO 0921/1003 5000 RA SCT015 BKN100

Example: see airport list